sim
Sign-in with your pilot id or email,
or register
Callsign
Passwort

Schedule Details

Flight Number: DLH92
Departure: Frankfurt Airport (EDDF) at 05:15
Arrival: Munich Airport (EDDM) at 06:10
Route: Lufthansa Passenger Schedule. Enter filed route here before submitting Pirep.

Weather Information
Getting current METAR information for EDDF 222050Z 26003KT 200V290 CAVOK 16/11 Q1007 NOSIG
Getting current METAR information for EDDM 222050Z 27004KT CAVOK 15/14 Q1010 NOSIG

Schedule Frequency

Route Map